Time;durP1;ratioP1;P1;durP2;ratioP2;P2;SDS_P1;SDS_P2;PMS_P1;PMS_P2;Temp;Humidity;BMP_temperature;BMP_pressure;BME280_temperature;BME280_humidity;BME280_pressure;Samples;Min_cycle;Max_cycle;Signal;HPM_P1;HPM_P2
2021/07/01 00:00:13;;;;;;;8.17;7.40;;;17.00;99.90;;;;;;5032133;28;20676;-71
2021/07/01 00:02:39;;;;;;;9.30;8.20;;;16.90;99.90;;;;;;5031871;28;20573;-71
2021/07/01 00:05:07;;;;;;;12.87;8.27;;;17.00;99.90;;;;;;5014557;28;20426;-72
2021/07/01 00:07:33;;;;;;;9.03;8.13;;;17.00;99.90;;;;;;5030469;28;20249;-72
2021/07/01 00:09:59;;;;;;;8.60;7.70;;;17.00;99.90;;;;;;5030652;28;20529;-73
2021/07/01 00:12:24;;;;;;;12.33;9.83;;;17.00;99.90;;;;;;5031823;28;20186;-74
2021/07/01 00:14:50;;;;;;;9.93;8.60;;;16.90;99.90;;;;;;5031914;28;20178;-73
2021/07/01 00:17:15;;;;;;;9.80;8.53;;;17.00;99.90;;;;;;5031630;28;20181;-73
2021/07/01 00:19:41;;;;;;;10.13;9.10;;;16.90;99.90;;;;;;5031889;28;20173;-72
2021/07/01 00:22:06;;;;;;;9.07;8.17;;;16.90;99.90;;;;;;5031315;28;20212;-72
2021/07/01 00:24:32;;;;;;;10.77;9.73;;;17.00;99.90;;;;;;5031652;28;20208;-71
2021/07/01 00:26:57;;;;;;;10.60;9.33;;;16.90;99.90;;;;;;5031490;28;20622;-72
2021/07/01 00:29:23;;;;;;;11.00;8.67;;;17.00;99.90;;;;;;5031481;28;20184;-73
2021/07/01 00:31:48;;;;;;;10.97;9.67;;;16.90;99.90;;;;;;5031594;28;20190;-73
2021/07/01 00:34:14;;;;;;;10.90;9.60;;;16.90;99.90;;;;;;5031761;28;20162;-72
2021/07/01 00:36:40;;;;;;;11.50;9.13;;;16.90;99.90;;;;;;5031545;28;20200;-72
2021/07/01 00:39:06;;;;;;;13.03;8.13;;;16.90;99.90;;;;;;5031578;28;20179;-72
2021/07/01 00:41:32;;;;;;;10.13;7.50;;;16.90;99.90;;;;;;5031175;28;20197;-72
2021/07/01 00:43:59;;;;;;;8.50;7.70;;;16.90;99.90;;;;;;5031129;28;20778;-71
2021/07/01 00:46:25;;;;;;;9.73;7.90;;;16.90;99.90;;;;;;5031260;28;20950;-71
2021/07/01 00:48:51;;;;;;;9.60;8.30;;;16.90;99.90;;;;;;5031187;28;20491;-71
2021/07/01 00:51:17;;;;;;;8.43;7.50;;;16.80;99.90;;;;;;5030891;28;20412;-72
2021/07/01 00:53:43;;;;;;;9.87;8.20;;;16.90;99.90;;;;;;5031148;28;20164;-72
2021/07/01 00:56:09;;;;;;;8.97;7.40;;;16.90;99.90;;;;;;5031270;28;20425;-71
2021/07/01 00:58:36;;;;;;;8.57;6.90;;;16.90;99.90;;;;;;5031040;28;20898;-72
2021/07/01 01:01:04;;;;;;;9.30;7.30;;;16.80;99.90;;;;;;5031030;28;20410;-71
2021/07/01 01:03:31;;;;;;;7.63;6.83;;;16.90;99.90;;;;;;5031033;28;20435;-71
2021/07/01 01:05:57;;;;;;;10.10;8.20;;;16.80;99.90;;;;;;5029534;28;20426;-72
2021/07/01 01:08:22;;;;;;;9.53;7.80;;;16.80;99.90;;;;;;5030744;28;20416;-71
2021/07/01 01:10:48;;;;;;;8.80;7.70;;;16.80;99.90;;;;;;5031143;28;20252;-72
2021/07/01 01:13:23;;;;;;;10.87;7.77;;;16.80;99.90;;;;;;5029637;28;20239;-72
2021/07/01 01:15:57;;;;;;;9.73;8.13;;;16.80;99.90;;;;;;5031388;28;20148;-71
2021/07/01 01:18:23;;;;;;;10.93;9.37;;;16.80;99.90;;;;;;5030979;28;20409;-72
2021/07/01 01:20:50;;;;;;;10.03;9.03;;;16.90;99.90;;;;;;5029565;28;20412;-71
2021/07/01 01:23:16;;;;;;;9.63;8.00;;;16.80;99.90;;;;;;5030640;28;20504;-73
2021/07/01 01:25:47;;;;;;;10.70;8.97;;;16.90;99.90;;;;;;5030755;28;20921;-72
2021/07/01 01:28:13;;;;;;;12.30;10.20;;;16.90;99.90;;;;;;5030784;28;20164;-71
2021/07/01 01:30:39;;;;;;;10.90;9.70;;;16.90;99.90;;;;;;5030663;28;20508;-72
2021/07/01 01:33:06;;;;;;;11.60;9.27;;;16.80;99.90;;;;;;5030742;28;20280;-72
2021/07/01 01:35:33;;;;;;;15.90;9.30;;;16.80;99.90;;;;;;5030663;28;20412;-72
2021/07/01 01:37:58;;;;;;;15.63;9.00;;;16.80;99.90;;;;;;5030759;28;20404;-72
2021/07/01 01:40:24;;;;;;;16.83;9.03;;;16.80;99.90;;;;;;5030811;28;20411;-72
2021/07/01 01:42:49;;;;;;;13.07;9.90;;;16.90;99.90;;;;;;5030527;28;20219;-72
2021/07/01 01:45:15;;;;;;;14.47;9.87;;;16.80;99.90;;;;;;5030717;28;20185;-72
2021/07/01 01:47:49;;;;;;;11.50;9.20;;;16.80;99.90;;;;;;5030529;28;20552;-72
2021/07/01 01:50:19;;;;;;;11.97;8.77;;;16.80;99.90;;;;;;5030743;28;20733;-72
2021/07/01 01:52:46;;;;;;;9.27;8.07;;;16.80;99.90;;;;;;5030463;28;20500;-72
2021/07/01 01:55:12;;;;;;;13.50;8.83;;;16.70;99.90;;;;;;5031593;28;20926;-72
2021/07/01 01:57:43;;;;;;;12.03;8.67;;;16.80;99.90;;;;;;5034095;28;20821;-72
2021/07/01 02:00:11;;;;;;;12.77;9.87;;;16.80;99.90;;;;;;5034233;28;20408;-72
2021/07/01 02:02:38;;;;;;;12.13;8.40;;;16.80;99.90;;;;;;5034068;28;21016;-72
2021/07/01 02:05:05;;;;;;;9.37;8.47;;;16.70;99.90;;;;;;5034181;28;20412;-73
2021/07/01 02:07:30;;;;;;;12.50;8.40;;;16.70;99.90;;;;;;5032477;28;20793;-72
2021/07/01 02:09:57;;;;;;;13.63;8.60;;;16.70;99.90;;;;;;5034039;28;20613;-72
2021/07/01 02:12:23;;;;;;;10.47;9.20;;;16.70;99.90;;;;;;5033965;28;20243;-72
2021/07/01 02:14:49;;;;;;;11.23;8.20;;;16.70;99.90;;;;;;5034083;28;20407;-72
2021/07/01 02:17:14;;;;;;;8.10;7.30;;;16.70;99.90;;;;;;5033841;28;20173;-72
2021/07/01 02:19:40;;;;;;;12.00;8.57;;;16.70;99.90;;;;;;5033930;28;20200;-73
2021/07/01 02:22:05;;;;;;;11.40;9.87;;;16.70;99.90;;;;;;5033681;28;20255;-71
2021/07/01 02:24:31;;;;;;;8.30;7.30;;;16.70;99.90;;;;;;5034106;28;20185;-72
2021/07/01 02:26:56;;;;;;;10.13;8.33;;;16.60;99.90;;;;;;5033715;28;20173;-72
2021/07/01 02:29:22;;;;;;;8.40;7.60;;;16.70;99.90;;;;;;5033745;28;20287;-72
2021/07/01 02:31:47;;;;;;;8.70;7.80;;;16.70;99.90;;;;;;5033651;28;20720;-72
2021/07/01 02:34:13;;;;;;;12.10;7.67;;;16.70;99.90;;;;;;5033672;28;20220;-71
2021/07/01 02:36:38;;;;;;;8.50;7.10;;;16.60;99.90;;;;;;5015526;28;20271;-71
2021/07/01 02:39:07;;;;;;;9.03;7.60;;;16.60;99.90;;;;;;5033576;28;20187;-71
2021/07/01 02:41:33;;;;;;;9.47;7.60;;;16.60;99.90;;;;;;5033318;28;20208;-72
2021/07/01 02:43:59;;;;;;;8.10;6.70;;;16.60;99.90;;;;;;5033315;28;20417;-72
2021/07/01 02:46:24;;;;;;;6.77;6.07;;;16.60;99.90;;;;;;5033181;28;20554;-71
2021/07/01 02:48:49;;;;;;;9.90;6.63;;;16.60;99.90;;;;;;5033279;28;20241;-74
2021/07/01 02:51:15;;;;;;;7.40;6.17;;;16.60;99.90;;;;;;5033071;28;20220;-74
2021/07/01 02:53:40;;;;;;;7.60;6.20;;;16.60;99.90;;;;;;5015408;28;20223;-75
2021/07/01 02:56:06;;;;;;;5.37;4.80;;;16.60;99.90;;;;;;5033193;28;20184;-71
2021/07/01 02:58:32;;;;;;;7.37;6.50;;;16.50;99.90;;;;;;5015497;28;20172;-73
2021/07/01 03:00:58;;;;;;;7.60;5.00;;;16.60;99.90;;;;;;5032965;28;20594;-71
2021/07/01 03:03:24;;;;;;;4.73;4.27;;;16.50;99.90;;;;;;5032771;28;20941;-73
2021/07/01 03:05:49;;;;;;;6.33;4.70;;;16.60;99.90;;;;;;5031617;28;20415;-74
2021/07/01 03:08:15;;;;;;;6.30;4.47;;;16.50;99.90;;;;;;5032775;28;20229;-73
2021/07/01 03:10:40;;;;;;;4.97;4.20;;;16.50;99.90;;;;;;5032870;28;20200;-70
2021/07/01 03:13:06;;;;;;;4.67;4.17;;;16.50;99.90;;;;;;5032724;28;20614;-71
2021/07/01 03:15:31;;;;;;;3.50;3.20;;;16.30;99.90;;;;;;5031608;28;20270;-72
2021/07/01 03:17:57;;;;;;;3.40;3.10;;;16.40;99.90;;;;;;5032755;28;20223;-71
2021/07/01 03:20:22;;;;;;;5.80;2.83;;;16.40;99.90;;;;;;5032663;28;20179;-71
2021/07/01 03:22:48;;;;;;;2.77;2.53;;;16.30;99.90;;;;;;5032363;28;20651;-72
2021/07/01 03:25:13;;;;;;;2.53;2.33;;;16.30;99.90;;;;;;5032658;28;20184;-73
2021/07/01 03:27:39;;;;;;;3.87;2.97;;;16.30;99.90;;;;;;5032663;28;20178;-72
2021/07/01 03:30:05;;;;;;;3.13;2.83;;;16.10;99.90;;;;;;5032612;28;20266;-72
2021/07/01 03:32:31;;;;;;;4.10;3.00;;;16.10;99.90;;;;;;5032437;28;20698;-71
2021/07/01 03:34:56;;;;;;;3.20;2.93;;;16.10;99.90;;;;;;5014454;28;20468;-72
2021/07/01 03:37:22;;;;;;;2.77;2.57;;;16.10;99.90;;;;;;5032397;28;20690;-73
2021/07/01 03:39:47;;;;;;;2.80;2.50;;;16.10;99.90;;;;;;5032531;28;20624;-72
2021/07/01 03:42:13;;;;;;;3.80;2.30;;;16.00;99.90;;;;;;5032278;28;20188;-72
2021/07/01 03:44:38;;;;;;;2.73;2.20;;;16.00;99.90;;;;;;5032255;28;20214;-72
2021/07/01 03:47:06;;;;;;;3.97;2.80;;;16.00;99.90;;;;;;5032117;28;20612;-71
2021/07/01 03:49:32;;;;;;;2.70;2.50;;;16.00;99.90;;;;;;5032137;28;20203;-71
2021/07/01 03:51:58;;;;;;;5.63;3.60;;;15.90;99.90;;;;;;5032061;28;20422;-72
2021/07/01 03:54:23;;;;;;;2.83;2.10;;;15.90;99.90;;;;;;5032024;28;20164;-72
2021/07/01 03:56:48;;;;;;;2.57;2.17;;;15.80;99.90;;;;;;5032020;28;20239;-72
2021/07/01 03:59:15;;;;;;;4.80;2.80;;;15.80;99.90;;;;;;5032135;28;20202;-71
2021/07/01 04:01:41;;;;;;;2.60;2.40;;;15.70;99.90;;;;;;5032066;28;20191;-72
2021/07/01 04:04:07;;;;;;;2.50;2.30;;;15.70;99.90;;;;;;5032004;28;20414;-72
2021/07/01 04:06:34;;;;;;;2.20;2.00;;;15.70;99.90;;;;;;5019404;28;20414;-72
2021/07/01 04:09:00;;;;;;;2.30;2.10;;;15.60;99.90;;;;;;5032044;28;20939;-72
2021/07/01 04:11:26;;;;;;;2.27;1.70;;;15.70;99.90;;;;;;5031635;28;20505;-71
2021/07/01 04:13:52;;;;;;;1.90;1.80;;;15.60;99.90;;;;;;5032062;28;20933;-71
2021/07/01 04:16:18;;;;;;;1.93;1.83;;;15.60;99.90;;;;;;5032374;28;20414;-71
2021/07/01 04:18:43;;;;;;;1.70;1.60;;;15.50;99.90;;;;;;5031058;28;20406;-71
2021/07/01 04:21:09;;;;;;;1.50;1.40;;;15.50;99.90;;;;;;5031539;28;20632;-71
2021/07/01 04:23:34;;;;;;;2.17;1.97;;;15.50;99.90;;;;;;5031381;28;20189;-70
2021/07/01 04:26:00;;;;;;;2.03;1.93;;;15.50;99.90;;;;;;5031720;28;20574;-71
2021/07/01 04:28:25;;;;;;;2.23;1.67;;;15.50;99.90;;;;;;5031313;28;20667;-73
2021/07/01 04:30:51;;;;;;;2.60;2.40;;;15.50;99.90;;;;;;5031374;28;20183;-71
2021/07/01 04:33:16;;;;;;;1.70;1.60;;;15.50;99.90;;;;;;5031533;28;20270;-71
2021/07/01 04:35:48;;;;;;;1.97;1.63;;;15.50;99.90;;;;;;5031322;28;20644;-70
2021/07/01 04:38:18;;;;;;;2.83;2.37;;;15.50;99.90;;;;;;5031264;28;20629;-71
2021/07/01 04:40:44;;;;;;;1.70;1.60;;;15.50;99.90;;;;;;5031278;28;20469;-73
2021/07/01 04:43:09;;;;;;;1.67;1.57;;;15.50;99.90;;;;;;5013194;28;20434;-71
2021/07/01 04:45:35;;;;;;;1.60;1.50;;;15.50;99.90;;;;;;5031162;28;20947;-70
2021/07/01 04:48:01;;;;;;;1.70;1.60;;;15.50;99.90;;;;;;5031278;28;20186;-70
2021/07/01 04:50:27;;;;;;;2.30;1.67;;;15.50;99.90;;;;;;5031045;28;20226;-71
2021/07/01 04:52:53;;;;;;;2.03;1.87;;;15.50;99.90;;;;;;5030728;28;20454;-71
2021/07/01 04:55:18;;;;;;;3.20;1.73;;;15.40;99.90;;;;;;5031012;28;20685;-71
2021/07/01 04:57:44;;;;;;;3.20;1.87;;;15.50;99.90;;;;;;5030827;28;20171;-71
2021/07/01 05:00:09;;;;;;;2.47;2.03;;;15.50;99.90;;;;;;5030877;28;20172;-72
2021/07/01 05:02:35;;;;;;;1.80;1.70;;;15.50;99.90;;;;;;5030621;28;20188;-71
2021/07/01 05:05:00;;;;;;;1.90;1.80;;;15.50;99.90;;;;;;5030837;28;20233;-71
2021/07/01 05:07:26;;;;;;;2.90;1.90;;;15.50;99.90;;;;;;5029381;28;20206;-71
2021/07/01 05:09:51;;;;;;;2.10;1.90;;;15.50;99.90;;;;;;5030887;28;20211;-71
2021/07/01 05:12:17;;;;;;;2.37;1.90;;;15.60;99.90;;;;;;5030842;28;20187;-71
2021/07/01 05:14:42;;;;;;;3.40;2.03;;;15.50;99.90;;;;;;5031028;28;20163;-71
2021/07/01 05:17:08;;;;;;;1.60;1.50;;;15.50;99.90;;;;;;5030914;28;20170;-71
2021/07/01 05:19:33;;;;;;;1.63;1.53;;;15.40;99.90;;;;;;5031034;28;20567;-71
2021/07/01 05:21:59;;;;;;;1.80;1.70;;;15.50;99.90;;;;;;5030712;28;20722;-72
2021/07/01 05:24:24;;;;;;;2.20;1.40;;;15.50;99.90;;;;;;5029887;28;20229;-71
2021/07/01 05:26:50;;;;;;;2.10;1.87;;;15.40;99.90;;;;;;5030946;28;20225;-71
2021/07/01 05:29:16;;;;;;;1.40;1.30;;;15.30;99.90;;;;;;5030782;28;20676;-71
2021/07/01 05:31:42;;;;;;;3.20;1.70;;;15.30;99.90;;;;;;5034451;28;20203;-71
2021/07/01 05:34:07;;;;;;;1.73;1.63;;;15.30;99.90;;;;;;5034957;28;20452;-71
2021/07/01 05:36:33;;;;;;;1.73;1.43;;;15.40;99.90;;;;;;5034639;28;20168;-71
2021/07/01 05:38:58;;;;;;;3.87;1.40;;;15.30;99.90;;;;;;5034867;28;20218;-71
2021/07/01 05:41:23;;;;;;;1.40;1.30;;;15.30;99.90;;;;;;5034652;28;20172;-71
2021/07/01 05:43:49;;;;;;;1.10;1.00;;;15.30;99.90;;;;;;5034781;28;20176;-71
2021/07/01 05:46:14;;;;;;;3.53;1.20;;;15.30;99.90;;;;;;5034550;28;20175;-71
2021/07/01 05:48:41;;;;;;;1.40;1.27;;;15.40;99.90;;;;;;5035027;28;20547;-70
2021/07/01 05:51:08;;;;;;;1.80;1.23;;;15.30;99.90;;;;;;5034595;28;20206;-71
2021/07/01 05:53:40;;;;;;;2.10;1.27;;;15.30;99.90;;;;;;5034719;28;20438;-71
2021/07/01 05:56:06;;;;;;;1.70;1.60;;;15.30;99.90;;;;;;5034793;28;20476;-70
2021/07/01 05:58:31;;;;;;;1.47;1.37;;;15.30;99.90;;;;;;5034457;28;20406;-70
2021/07/01 06:00:57;;;;;;;1.90;1.70;;;15.30;99.90;;;;;;5034426;28;20207;-70
2021/07/01 06:03:22;;;;;;;1.87;1.77;;;15.30;99.90;;;;;;5034349;28;20238;-70
2021/07/01 06:05:56;;;;;;;2.60;2.07;;;15.30;99.90;;;;;;5034500;28;20170;-70
2021/07/01 06:08:23;;;;;;;2.47;2.27;;;15.40;99.90;;;;;;5034301;28;20187;-70
2021/07/01 06:10:50;;;;;;;3.30;2.30;;;15.40;99.90;;;;;;5034084;28;20540;-71
2021/07/01 06:13:22;;;;;;;3.50;2.40;;;15.40;99.90;;;;;;5034590;28;20508;-71
2021/07/01 06:15:48;;;;;;;3.73;2.50;;;15.40;99.90;;;;;;5034418;28;20410;-71
2021/07/01 06:18:14;;;;;;;3.03;2.70;;;15.20;99.90;;;;;;5034141;28;20489;-71
2021/07/01 06:20:40;;;;;;;4.03;2.13;;;15.30;99.90;;;;;;5034349;28;20453;-71
2021/07/01 06:23:06;;;;;;;3.63;2.27;;;15.30;99.90;;;;;;5034045;28;20215;-71
2021/07/01 06:25:32;;;;;;;2.70;2.00;;;15.30;99.90;;;;;;5033870;28;20415;-72
2021/07/01 06:27:57;;;;;;;2.53;2.33;;;15.30;99.90;;;;;;5033826;28;20605;-71
2021/07/01 06:30:23;;;;;;;2.60;1.70;;;15.20;99.90;;;;;;5033864;28;20194;-71
2021/07/01 06:32:52;;;;;;;2.40;2.10;;;15.20;99.90;;;;;;5033811;28;20188;-72
2021/07/01 06:35:23;;;;;;;3.00;2.70;;;15.30;99.90;;;;;;5033943;28;20163;-72
2021/07/01 06:37:50;;;;;;;2.00;1.80;;;15.10;99.90;;;;;;5033768;28;20395;-71
2021/07/01 06:40:17;;;;;;;2.97;2.67;;;15.10;99.90;;;;;;5033619;28;20927;-72
2021/07/01 06:43:09;;;;;;;2.33;2.13;;;15.10;99.90;;;;;;5033394;28;20430;-72
2021/07/01 06:45:35;;;;;;;2.17;1.90;;;15.20;99.90;;;;;;5031660;28;20414;-72
2021/07/01 06:48:02;;;;;;;2.67;2.20;;;15.20;99.90;;;;;;5033664;28;20465;-72
2021/07/01 06:50:29;;;;;;;3.20;1.97;;;15.10;99.90;;;;;;5033553;28;20947;-71
2021/07/01 06:52:57;;;;;;;2.27;2.07;;;15.10;99.90;;;;;;5033475;28;20480;-71
2021/07/01 06:55:24;;;;;;;3.87;2.23;;;15.10;99.90;;;;;;5033589;28;20435;-72
2021/07/01 06:57:50;;;;;;;4.70;2.30;;;15.10;99.90;;;;;;5033571;28;20415;-72
2021/07/01 07:00:18;;;;;;;4.07;2.67;;;15.10;99.90;;;;;;5033531;28;20472;-72
2021/07/01 07:02:45;;;;;;;3.43;2.03;;;15.00;99.90;;;;;;5033309;28;20437;-72
2021/07/01 07:05:20;;;;;;;3.03;2.73;;;14.90;99.90;;;;;;5033331;28;20414;-72
2021/07/01 07:07:48;;;;;;;2.20;1.97;;;15.00;99.90;;;;;;5033359;28;20405;-72
2021/07/01 07:10:16;;;;;;;3.63;2.70;;;15.10;99.90;;;;;;5033377;28;20494;-71
2021/07/01 07:12:44;;;;;;;2.53;1.70;;;15.10;99.90;;;;;;5030510;28;20438;-72
2021/07/01 07:15:12;;;;;;;3.30;2.17;;;15.10;99.90;;;;;;5013243;28;20408;-71
2021/07/01 07:17:39;;;;;;;3.07;2.37;;;15.00;99.90;;;;;;5019278;28;20446;-70
2021/07/01 07:20:06;;;;;;;2.63;2.07;;;15.00;99.90;;;;;;5033003;28;20834;-73
2021/07/01 07:22:39;;;;;;;4.33;2.37;;;15.00;99.90;;;;;;5032957;28;20457;-72
2021/07/01 07:25:09;;;;;;;2.70;2.00;;;15.10;99.90;;;;;;5033579;28;20494;-77
2021/07/01 07:27:38;;;;;;;3.73;1.90;;;15.10;99.90;;;;;;5033399;28;20418;-71
2021/07/01 07:30:05;;;;;;;2.30;2.10;;;15.20;99.90;;;;;;5033346;28;20446;-72
2021/07/01 07:32:31;;;;;;;2.47;2.23;;;15.30;99.90;;;;;;5032877;28;20426;-72
2021/07/01 07:34:56;;;;;;;2.80;2.00;;;15.30;99.90;;;;;;5032659;28;20430;-72
2021/07/01 07:37:22;;;;;;;3.37;1.90;;;15.10;99.90;;;;;;5031948;28;20187;-71
2021/07/01 07:39:48;;;;;;;3.07;1.83;;;15.10;99.90;;;;;;5031066;28;20191;-72
2021/07/01 07:42:15;;;;;;;2.53;2.00;;;15.00;99.90;;;;;;5031158;28;20215;-72
2021/07/01 07:44:42;;;;;;;2.07;1.70;;;15.20;99.90;;;;;;5032248;28;20989;-72
2021/07/01 07:47:14;;;;;;;2.10;1.90;;;15.10;99.90;;;;;;5032306;28;20426;-72
2021/07/01 07:49:41;;;;;;;1.57;1.40;;;15.10;99.90;;;;;;5014575;28;20548;-70
2021/07/01 07:52:13;;;;;;;2.03;1.83;;;15.10;99.90;;;;;;5031957;28;20516;-71
2021/07/01 07:55:02;;;;;;;2.23;1.30;;;15.20;99.90;;;;;;5032071;28;20929;-72
2021/07/01 07:57:29;;;;;;;1.63;1.27;;;15.20;99.90;;;;;;5032954;28;20442;-71
2021/07/01 07:59:57;;;;;;;2.43;1.33;;;15.10;99.90;;;;;;5032277;28;20410;-71
2021/07/01 08:02:34;;;;;;;3.20;2.90;;;15.10;99.90;;;;;;5032260;28;21159;-71
2021/07/01 08:05:01;;;;;;;1.30;1.20;;;15.10;99.90;;;;;;5032090;28;20472;-71
2021/07/01 08:07:28;;;;;;;1.70;1.20;;;15.20;99.90;;;;;;5032075;28;20446;-72
2021/07/01 08:09:54;;;;;;;3.70;2.17;;;15.10;99.90;;;;;;5032419;28;20446;-71
2021/07/01 08:12:20;;;;;;;2.17;1.90;;;15.10;99.90;;;;;;5032628;28;20507;-73
2021/07/01 08:14:46;;;;;;;1.80;1.57;;;15.20;99.90;;;;;;5031175;28;20172;-72
2021/07/01 08:17:15;;;;;;;3.30;1.83;;;15.20;99.90;;;;;;5032419;28;20441;-72
2021/07/01 08:19:41;;;;;;;3.23;1.83;;;15.10;99.90;;;;;;5050878;28;20618;-72
2021/07/01 08:22:09;;;;;;;1.63;1.53;;;15.10;99.90;;;;;;5023793;28;20502;-72
2021/07/01 08:24:35;;;;;;;1.37;1.17;;;15.20;99.90;;;;;;5012658;28;20697;-71
2021/07/01 08:27:00;;;;;;;5.57;1.40;;;15.10;99.90;;;;;;5012760;28;20441;-71
2021/07/01 08:29:27;;;;;;;1.70;1.60;;;15.20;99.90;;;;;;5011094;28;20455;-71
2021/07/01 08:31:52;;;;;;;2.73;1.63;;;15.30;99.90;;;;;;5011314;28;20192;-71
2021/07/01 08:34:21;;;;;;;1.70;1.60;;;15.30;99.90;;;;;;5012248;28;20415;-72
2021/07/01 08:36:48;;;;;;;2.73;2.10;;;15.10;99.90;;;;;;5012240;28;20167;-71
2021/07/01 08:39:14;;;;;;;1.50;1.40;;;15.00;99.90;;;;;;5021582;28;20422;-71
2021/07/01 08:41:43;;;;;;;1.70;1.60;;;15.10;99.90;;;;;;5031386;28;20441;-72
2021/07/01 08:44:18;;;;;;;1.30;1.20;;;15.10;99.90;;;;;;5031682;28;20171;-71
2021/07/01 08:46:51;;;;;;;1.43;1.30;;;15.10;99.90;;;;;;5031579;28;20777;-71
2021/07/01 08:49:35;;;;;;;2.30;1.63;;;15.20;99.90;;;;;;5031627;28;20783;-71
2021/07/01 08:52:04;;;;;;;1.23;1.13;;;15.20;99.90;;;;;;5013634;28;20515;-71
2021/07/01 08:54:35;;;;;;;1.57;1.47;;;15.10;99.90;;;;;;5031590;28;20498;-71
2021/07/01 08:57:04;;;;;;;2.50;1.60;;;15.10;99.90;;;;;;5031141;28;20793;-75
2021/07/01 08:59:44;;;;;;;1.40;1.30;;;15.10;99.90;;;;;;5031360;28;20409;-71
2021/07/01 09:02:12;;;;;;;2.10;1.90;;;15.00;99.90;;;;;;5031288;28;20432;-71
2021/07/01 09:04:48;;;;;;;1.50;1.40;;;15.30;99.90;;;;;;5033709;28;20406;-73
2021/07/01 09:07:20;;;;;;;3.73;1.47;;;15.20;99.90;;;;;;5035802;28;20410;-73
2021/07/01 09:09:53;;;;;;;1.40;1.30;;;15.20;99.90;;;;;;5031981;28;20455;-72
2021/07/01 09:12:22;;;;;;;2.07;1.87;;;15.30;99.90;;;;;;5030412;28;20451;-72
2021/07/01 09:14:57;;;;;;;1.73;1.63;;;15.20;99.90;;;;;;5036261;28;20490;-72
2021/07/01 09:17:32;;;;;;;2.07;1.50;;;15.20;99.90;;;;;;5036269;28;20823;-72
2021/07/01 09:20:00;;;;;;;1.60;1.43;;;15.20;99.90;;;;;;5037348;28;20826;-72
2021/07/01 09:22:28;;;;;;;2.03;1.73;;;15.10;99.90;;;;;;5036159;28;20452;-72
2021/07/01 09:24:54;;;;;;;3.30;2.73;;;15.20;99.90;;;;;;5035593;28;20409;-72
2021/07/01 09:27:20;;;;;;;7.83;6.00;;;15.20;99.90;;;;;;5035468;28;20910;-72
2021/07/01 09:29:48;;;;;;;2.87;2.67;;;15.10;99.90;;;;;;5034639;28;20450;-71
2021/07/01 09:32:16;;;;;;;13.43;5.93;;;15.10;99.90;;;;;;5035135;28;20457;-71
2021/07/01 09:34:42;;;;;;;2.30;2.10;;;15.10;99.90;;;;;;5035042;28;20405;-72
2021/07/01 09:37:08;;;;;;;2.73;2.50;;;15.00;99.90;;;;;;5034710;28;20490;-70
2021/07/01 09:39:35;;;;;;;2.37;2.17;;;15.10;99.90;;;;;;5034806;28;20476;-73
2021/07/01 09:42:02;;;;;;;4.00;3.13;;;15.20;99.90;;;;;;5016796;28;20470;-74
2021/07/01 09:44:29;;;;;;;2.27;2.07;;;15.30;99.90;;;;;;5034798;28;20410;-72
2021/07/01 09:46:59;;;;;;;2.63;2.43;;;15.10;99.90;;;;;;5034813;28;20414;-72
2021/07/01 09:49:31;;;;;;;3.50;2.90;;;15.10;99.90;;;;;;5031353;28;20442;-73
2021/07/01 09:52:02;;;;;;;2.50;2.30;;;15.10;99.90;;;;;;5025409;28;20558;-72
2021/07/01 09:54:30;;;;;;;3.60;3.00;;;15.00;99.90;;;;;;5014822;28;20486;-73
2021/07/01 09:57:00;;;;;;;2.60;2.37;;;15.10;99.90;;;;;;5027204;28;20410;-71
2021/07/01 09:59:33;;;;;;;2.80;2.47;;;15.20;99.90;;;;;;5034472;28;20406;-73
2021/07/01 10:02:17;;;;;;;4.80;2.53;;;15.10;99.90;;;;;;5034521;28;20449;-70
2021/07/01 10:04:45;;;;;;;3.43;3.13;;;15.20;99.90;;;;;;5034636;28;20498;-72
2021/07/01 10:07:15;;;;;;;3.30;3.00;;;15.00;99.90;;;;;;5034332;28;20406;-76
2021/07/01 10:09:42;;;;;;;3.40;3.10;;;15.00;99.90;;;;;;5034063;28;20450;-73
2021/07/01 10:12:28;;;;;;;3.87;3.57;;;15.10;99.90;;;;;;5034127;28;20800;-74
2021/07/01 10:14:58;;;;;;;4.53;4.13;;;15.00;99.90;;;;;;5034548;28;20438;-75
2021/07/01 10:17:25;;;;;;;3.87;3.53;;;15.00;99.90;;;;;;5033333;28;20406;-72
2021/07/01 10:20:04;;;;;;;4.40;4.07;;;15.10;99.90;;;;;;5034051;28;20927;-72
2021/07/01 10:22:39;;;;;;;4.63;4.23;;;14.90;99.90;;;;;;5033421;28;21033;-73
2021/07/01 10:25:06;;;;;;;4.10;3.80;;;15.10;99.90;;;;;;5053194;28;20401;-73
2021/07/01 10:27:39;;;;;;;3.50;3.20;;;15.10;99.90;;;;;;5053559;28;20406;-73
2021/07/01 10:30:14;;;;;;;4.63;4.23;;;15.00;99.90;;;;;;5053742;28;20452;-72
2021/07/01 10:32:43;;;;;;;3.70;3.40;;;15.10;99.90;;;;;;5035568;28;20520;-73
2021/07/01 10:35:30;;;;;;;5.00;3.90;;;15.20;99.90;;;;;;5053666;28;20401;-75
2021/07/01 10:38:01;;;;;;;4.17;3.87;;;15.20;99.90;;;;;;5042710;28;20414;-75
2021/07/01 10:40:27;;;;;;;5.73;5.30;;;15.10;99.90;;;;;;5033802;28;20426;-75
2021/07/01 10:42:56;;;;;;;4.60;4.20;;;15.10;99.90;;;;;;5033344;28;20468;-72
2021/07/01 10:45:23;;;;;;;4.93;4.53;;;15.10;99.90;;;;;;5023176;28;20430;-73
2021/07/01 10:47:49;;;;;;;3.70;3.40;;;15.20;99.90;;;;;;5028777;28;20462;-73
2021/07/01 10:50:25;;;;;;;4.90;4.40;;;15.30;99.90;;;;;;5033173;28;20548;-73
2021/07/01 10:52:51;;;;;;;4.43;4.10;;;15.40;99.90;;;;;;5033324;28;20187;-73
2021/07/01 10:55:17;;;;;;;4.57;4.17;;;15.40;99.90;;;;;;5033321;28;20425;-72
2021/07/01 10:57:48;;;;;;;4.43;4.03;;;15.20;99.90;;;;;;5033295;28;20198;-73
2021/07/01 11:00:14;;;;;;;5.50;4.80;;;15.30;99.90;;;;;;5033235;28;20657;-73
2021/07/01 11:02:47;;;;;;;5.87;5.27;;;15.40;99.90;;;;;;5033363;28;20430;-72
2021/07/01 11:05:13;;;;;;;8.77;6.00;;;15.50;99.90;;;;;;5033407;28;20171;-72
2021/07/01 11:07:47;;;;;;;8.30;7.50;;;15.50;99.90;;;;;;5033007;28;20418;-73
2021/07/01 11:10:14;;;;;;;5.30;4.83;;;15.50;99.90;;;;;;5032959;28;20462;-73
2021/07/01 11:12:47;;;;;;;4.97;4.57;;;15.50;99.90;;;;;;5032563;28;20804;-72
2021/07/01 11:15:13;;;;;;;5.03;4.60;;;15.50;99.90;;;;;;5032944;28;20498;-73
2021/07/01 11:17:40;;;;;;;5.60;5.10;;;15.40;99.90;;;;;;5032984;28;20411;-73
2021/07/01 11:20:13;;;;;;;5.03;4.60;;;15.40;99.90;;;;;;5032768;28;20490;-73
2021/07/01 11:22:51;;;;;;;6.10;5.10;;;15.40;99.90;;;;;;5032783;28;20485;-73
2021/07/01 11:25:28;;;;;;;4.80;4.40;;;15.50;99.90;;;;;;5047421;28;20456;-73
2021/07/01 11:28:14;;;;;;;5.80;4.80;;;15.40;99.90;;;;;;5052436;28;20389;-72
2021/07/01 11:30:47;;;;;;;6.20;5.70;;;15.40;99.90;;;;;;5013116;28;20541;-72
2021/07/01 11:33:15;;;;;;;6.00;5.40;;;15.50;99.90;;;;;;5012860;28;20584;-73
2021/07/01 11:35:41;;;;;;;4.80;4.43;;;15.30;99.90;;;;;;5012931;28;20404;-73
2021/07/01 11:38:29;;;;;;;5.17;4.77;;;15.30;99.90;;;;;;4995033;28;20932;-73
2021/07/01 11:40:56;;;;;;;5.47;4.80;;;15.30;99.90;;;;;;5012690;28;20180;-73
2021/07/01 11:43:22;;;;;;;6.07;5.47;;;15.40;99.90;;;;;;5024474;28;20442;-74
2021/07/01 11:45:52;;;;;;;6.00;5.50;;;15.60;99.90;;;;;;5031735;28;20433;-72
2021/07/01 11:48:21;;;;;;;6.60;6.00;;;15.60;99.90;;;;;;5019266;28;20429;-72
2021/07/01 11:50:48;;;;;;;7.53;6.67;;;15.60;99.90;;;;;;5011017;28;20513;-73
2021/07/01 11:53:16;;;;;;;6.40;5.80;;;15.70;99.90;;;;;;5012494;28;20454;-72
2021/07/01 11:55:41;;;;;;;6.93;6.20;;;15.70;99.90;;;;;;5017716;28;20835;-73
2021/07/01 11:58:09;;;;;;;6.43;5.93;;;15.60;99.90;;;;;;5031991;28;20412;-73
2021/07/01 12:00:35;;;;;;;6.27;5.77;;;15.70;99.90;;;;;;5032079;28;20634;-73
2021/07/01 12:03:03;;;;;;;6.67;6.10;;;15.60;99.90;;;;;;5032958;28;20457;-73
2021/07/01 12:05:28;;;;;;;7.97;7.20;;;15.60;99.90;;;;;;5031787;28;20203;-71
2021/07/01 12:07:54;;;;;;;7.00;6.40;;;15.60;99.90;;;;;;5031843;28;20472;-72
2021/07/01 12:10:20;;;;;;;7.90;7.10;;;15.60;99.90;;;;;;5013971;28;20242;-73
2021/07/01 12:12:45;;;;;;;7.57;6.77;;;15.50;99.90;;;;;;5031492;28;20646;-72
2021/07/01 12:15:13;;;;;;;7.70;7.07;;;15.60;99.90;;;;;;5031753;28;20528;-72
2021/07/01 12:18:02;;;;;;;9.73;8.83;;;15.70;99.90;;;;;;5031140;28;20175;-72
2021/07/01 12:20:31;;;;;;;8.00;7.30;;;15.80;99.90;;;;;;5031382;28;20419;-73
2021/07/01 12:22:58;;;;;;;8.17;7.43;;;15.90;99.90;;;;;;5023457;28;20442;-73
2021/07/01 12:25:39;;;;;;;8.30;7.50;;;15.90;99.90;;;;;;5031361;28;20406;-73
2021/07/01 12:28:04;;;;;;;9.50;8.63;;;16.00;99.90;;;;;;5031188;28;20426;-73
2021/07/01 12:30:51;;;;;;;9.43;8.53;;;15.90;99.90;;;;;;5038070;28;20485;-73
2021/07/01 12:33:45;;;;;;;9.50;8.70;;;15.70;99.90;;;;;;5051339;28;20221;-72
2021/07/01 12:36:41;;;;;;;9.13;7.80;;;15.70;99.90;;;;;;5049771;28;20393;-73
2021/07/01 12:39:12;;;;;;;8.00;7.40;;;15.70;99.90;;;;;;5031059;28;20412;-73
2021/07/01 12:42:05;;;;;;;8.93;8.23;;;15.70;99.90;;;;;;5031095;28;20454;-72
2021/07/01 12:44:33;;;;;;;8.70;7.90;;;15.90;99.90;;;;;;5011687;28;20400;-73
2021/07/01 12:47:11;;;;;;;8.50;7.70;;;16.00;99.90;;;;;;5017073;28;20481;-73
2021/07/01 12:49:37;;;;;;;8.33;7.63;;;16.00;99.90;;;;;;5018299;28;20498;-73